You are not logged in, Click here to log in
ICAO: ZSSS Country: 中國上海市長寧區、閔行區
Latitude: 31.1919 Longitude: 121.337
Total Arrivals: 51 Total Departures: 51
Latest Arrival: MU5308 (ZGGG-ZSSS)CHU. CHUHAO Latest Departure: MU5309 (ZSSS-ZGGG)CHU. CHUHAO
Scenery:
METAR : ZSSS 232030Z 11001MPS 9999 BKN023 28/25 Q1009 NOSIG

上海虹橋國際機場SHA